Time;durP1;ratioP1;P1;durP2;ratioP2;P2;SDS_P1;SDS_P2;PMS_P1;PMS_P2;Temp;Humidity;BMP_temperature;BMP_pressure;BME280_temperature;BME280_humidity;BME280_pressure;Samples;Min_cycle;Max_cycle;Signal;HPM_P1;HPM_P2
2022/07/09 00:01:46;;;;;;;4.30;2.45;;;;;;;18.12;73.51;100696.88;5075196;28;20044;-71
2022/07/09 00:04:15;;;;;;;5.20;2.28;;;;;;;18.02;73.88;100695.94;5092949;28;20044;-70
2022/07/09 00:06:44;;;;;;;5.18;2.50;;;;;;;18.07;73.79;100707.22;5093307;28;20063;-71
2022/07/09 00:09:13;;;;;;;7.50;2.58;;;;;;;18.01;74.08;100705.88;5075129;28;20048;-71
2022/07/09 00:11:41;;;;;;;5.88;2.42;;;;;;;18.09;72.81;100712.47;5075264;28;20062;-70
2022/07/09 00:14:09;;;;;;;5.70;2.70;;;;;;;18.08;72.56;100710.78;5093312;28;20400;-70
2022/07/09 00:16:38;;;;;;;6.53;2.28;;;;;;;18.02;72.63;100712.13;5093119;28;20122;-71
2022/07/09 00:19:06;;;;;;;6.70;2.70;;;;;;;17.99;72.53;100707.00;5093278;28;20040;-76
2022/07/09 00:21:34;;;;;;;5.00;2.33;;;;;;;17.97;72.72;100701.75;5093204;28;20040;-70
2022/07/09 00:24:04;;;;;;;4.07;2.50;;;;;;;17.95;72.82;100703.72;5093018;28;20105;-70
2022/07/09 00:26:33;;;;;;;6.28;2.40;;;;;;;18.00;72.23;100706.88;5093037;28;20048;-71
2022/07/09 00:29:01;;;;;;;6.95;2.38;;;;;;;18.00;72.18;100697.91;5093030;28;20051;-70
2022/07/09 00:31:29;;;;;;;4.50;2.60;;;;;;;17.99;72.10;100704.31;5093100;28;20040;-70
2022/07/09 00:33:57;;;;;;;5.93;2.60;;;;;;;17.90;72.67;100696.97;5092954;28;20050;-70
2022/07/09 00:36:25;;;;;;;5.15;2.67;;;;;;;17.92;72.38;100705.78;5093026;28;20055;-69
2022/07/09 00:38:53;;;;;;;5.13;2.50;;;;;;;17.87;72.16;100697.25;5093040;28;20419;-69
2022/07/09 00:41:23;;;;;;;6.45;2.63;;;;;;;17.86;72.17;100698.22;5093041;28;20048;-69
2022/07/09 00:43:51;;;;;;;5.43;2.55;;;;;;;17.69;73.17;100678.91;5093036;28;20048;-69
2022/07/09 00:46:20;;;;;;;6.93;2.85;;;;;;;17.73;72.63;100677.66;5092770;28;20132;-69
2022/07/09 00:48:48;;;;;;;5.05;2.50;;;;;;;17.77;72.47;100674.72;5093994;28;20126;-69
2022/07/09 00:51:18;;;;;;;4.72;2.45;;;;;;;17.74;72.18;100676.66;5096668;28;20108;-69
2022/07/09 00:53:49;;;;;;;7.15;2.42;;;;;;;17.82;71.47;100669.78;5097001;28;20044;-69
2022/07/09 00:56:17;;;;;;;5.68;2.38;;;;;;;17.78;71.75;100671.03;5096531;28;20043;-69
2022/07/09 00:58:47;;;;;;;4.38;2.33;;;;;;;17.75;71.94;100672.13;5097128;28;20048;-69
2022/07/09 01:01:16;;;;;;;4.38;2.40;;;;;;;17.74;71.38;100660.47;5096627;28;20075;-69
2022/07/09 01:03:44;;;;;;;6.72;2.80;;;;;;;17.66;71.73;100662.94;5096760;28;20043;-69
2022/07/09 01:06:13;;;;;;;5.50;2.25;;;;;;;17.73;71.45;100674.09;5096498;28;20241;-70
2022/07/09 01:08:41;;;;;;;3.67;2.22;;;;;;;17.65;72.00;100666.59;5096575;28;20230;-70
2022/07/09 01:11:09;;;;;;;5.00;2.38;;;;;;;17.73;70.98;100658.75;5096178;28;20044;-73
2022/07/09 01:13:37;;;;;;;6.03;2.40;;;;;;;17.67;71.76;100675.44;5096812;28;20435;-70
2022/07/09 01:16:14;;;;;;;6.00;2.55;;;;;;;17.68;71.42;100666.38;5096516;28;20047;-70
2022/07/09 01:18:44;;;;;;;4.78;2.20;;;;;;;17.73;70.32;100669.56;5096328;28;20568;-70
2022/07/09 01:21:15;;;;;;;8.15;2.42;;;;;;;17.61;71.17;100667.84;5096064;28;20037;-70
2022/07/09 01:23:43;;;;;;;6.40;2.20;;;;;;;17.55;71.36;100659.41;5096267;28;20485;-69
2022/07/09 01:26:11;;;;;;;4.22;2.08;;;;;;;17.53;71.65;100669.47;5096226;28;20040;-70
2022/07/09 01:28:39;;;;;;;5.97;2.20;;;;;;;17.45;72.46;100665.56;5078328;28;20051;-69
2022/07/09 01:31:08;;;;;;;7.05;2.50;;;;;;;17.31;73.17;100659.59;5096088;28;20477;-70
2022/07/09 01:33:39;;;;;;;4.72;2.47;;;;;;;17.32;73.19;100664.00;5096344;28;20048;-72
2022/07/09 01:36:08;;;;;;;4.78;2.15;;;;;;;17.24;73.67;100666.47;5096271;28;20389;-70
2022/07/09 01:38:37;;;;;;;5.78;2.60;;;;;;;17.23;73.67;100664.75;5095951;28;20122;-71
2022/07/09 01:41:06;;;;;;;8.07;2.20;;;;;;;17.05;75.16;100662.56;5096320;28;20389;-70
2022/07/09 01:43:34;;;;;;;6.03;2.17;;;;;;;17.09;74.68;100661.34;5095956;28;20401;-71
2022/07/09 01:46:03;;;;;;;5.13;2.33;;;;;;;17.02;75.24;100657.44;5095788;28;20051;-71
2022/07/09 01:48:35;;;;;;;6.45;2.00;;;;;;;16.94;75.91;100659.88;5095504;28;20055;-71
2022/07/09 01:51:03;;;;;;;4.73;2.30;;;;;;;16.99;75.52;100663.06;5096112;28;20040;-71
2022/07/09 01:53:33;;;;;;;8.20;2.53;;;;;;;16.82;77.33;100661.72;5095541;28;20472;-71
2022/07/09 01:56:06;;;;;;;6.35;2.50;;;;;;;16.85;77.03;100658.78;5095823;28;20039;-71
2022/07/09 01:58:35;;;;;;;6.53;2.47;;;;;;;16.88;76.75;100663.91;5095492;28;20068;-71
2022/07/09 02:01:04;;;;;;;5.90;2.20;;;;;;;16.86;77.19;100656.94;5095014;28;20044;-71
2022/07/09 02:03:32;;;;;;;4.93;2.40;;;;;;;16.67;78.10;100653.97;5095697;28;20044;-71
2022/07/09 02:06:00;;;;;;;5.35;1.90;;;;;;;16.68;78.60;100652.97;5095529;28;20044;-70
2022/07/09 02:08:28;;;;;;;6.85;2.50;;;;;;;16.74;78.10;100652.53;5095035;28;20044;-71
2022/07/09 02:10:57;;;;;;;8.85;2.40;;;;;;;16.63;79.41;100650.66;5095281;28;20044;-71
2022/07/09 02:13:26;;;;;;;6.55;2.45;;;;;;;16.80;77.56;100652.91;5095384;28;20060;-71
2022/07/09 02:15:55;;;;;;;4.80;2.30;;;;;;;16.74;77.69;100652.53;5095477;28;20040;-71
2022/07/09 02:18:23;;;;;;;5.65;2.20;;;;;;;16.81;76.96;100659.16;5095085;28;20044;-71
2022/07/09 02:20:51;;;;;;;7.00;2.38;;;;;;;16.71;77.92;100658.19;5095339;28;20373;-71
2022/07/09 02:23:19;;;;;;;6.30;2.40;;;;;;;16.66;78.43;100654.94;5095020;28;20454;-71
2022/07/09 02:25:47;;;;;;;6.18;2.25;;;;;;;16.71;78.04;100655.47;5095075;28;20115;-71
2022/07/09 02:28:16;;;;;;;6.88;2.50;;;;;;;16.74;77.56;100652.53;5094961;28;20048;-72
2022/07/09 02:30:45;;;;;;;6.55;2.50;;;;;;;16.65;78.40;100655.91;5095355;28;20050;-71
2022/07/09 02:33:14;;;;;;;6.63;2.50;;;;;;;16.67;78.02;100659.34;5094914;28;20044;-78
2022/07/09 02:35:42;;;;;;;5.30;2.20;;;;;;;16.65;77.86;100655.91;5095020;28;20253;-71
2022/07/09 02:38:11;;;;;;;5.28;2.28;;;;;;;16.65;77.86;100666.69;5094780;28;20551;-71
2022/07/09 02:40:39;;;;;;;6.55;2.30;;;;;;;16.54;78.66;100660.31;5094851;28;20396;-71
2022/07/09 02:43:07;;;;;;;9.73;2.72;;;;;;;16.49;78.99;100665.19;5094980;28;20047;-71
2022/07/09 02:45:35;;;;;;;8.13;2.40;;;;;;;16.52;78.94;100658.75;5094766;28;20039;-71
2022/07/09 02:48:05;;;;;;;6.10;2.50;;;;;;;16.52;79.34;100662.28;5094633;28;20044;-70
2022/07/09 02:50:33;;;;;;;4.65;2.05;;;;;;;16.50;79.11;100660.66;5094467;28;20047;-71
2022/07/09 02:53:01;;;;;;;5.88;2.35;;;;;;;16.57;78.54;100660.06;5094596;28;20040;-71
2022/07/09 02:55:29;;;;;;;8.55;2.33;;;;;;;16.54;79.23;100659.47;5094289;28;20048;-71
2022/07/09 02:57:58;;;;;;;7.13;2.88;;;;;;;16.56;78.68;100660.19;5094611;28;20048;-71
2022/07/09 03:00:26;;;;;;;6.53;2.47;;;;;;;16.52;78.99;100654.22;5094494;28;20391;-72
2022/07/09 03:02:54;;;;;;;4.82;2.38;;;;;;;16.50;79.35;100655.28;5094368;28;20048;-71
2022/07/09 03:05:24;;;;;;;4.78;2.13;;;;;;;16.54;79.49;100656.78;5093947;28;20096;-72
2022/07/09 03:07:52;;;;;;;7.40;2.33;;;;;;;16.55;79.17;100658.50;5094207;28;20051;-72
2022/07/09 03:10:20;;;;;;;5.60;2.30;;;;;;;16.59;78.90;100655.41;5094105;28;20046;-71
2022/07/09 03:12:48;;;;;;;7.82;2.60;;;;;;;16.56;79.13;100654.81;5093299;28;20085;-71
2022/07/09 03:15:17;;;;;;;6.50;2.40;;;;;;;16.66;78.54;100654.94;5094120;28;20465;-75
2022/07/09 03:17:45;;;;;;;6.03;2.22;;;;;;;16.55;78.82;100658.50;5094376;28;20043;-71
2022/07/09 03:20:14;;;;;;;6.15;2.75;;;;;;;16.64;78.61;100660.44;5094242;28;20122;-71
2022/07/09 03:22:43;;;;;;;5.03;2.55;;;;;;;16.65;78.92;100661.31;5094472;28;20048;-71
2022/07/09 03:25:12;;;;;;;5.78;2.35;;;;;;;16.78;77.38;100659.38;5094156;28;20404;-71
2022/07/09 03:27:40;;;;;;;5.65;2.42;;;;;;;16.88;76.79;100654.97;5095322;28;20127;-71
2022/07/09 03:30:09;;;;;;;7.53;2.50;;;;;;;16.84;77.01;100658.91;5078816;28;20071;-70
2022/07/09 03:32:37;;;;;;;5.40;2.55;;;;;;;16.87;76.88;100664.03;5093987;28;20086;-71
2022/07/09 03:35:06;;;;;;;7.97;2.50;;;;;;;17.04;76.43;100660.00;5093769;28;20134;-71
2022/07/09 03:37:34;;;;;;;8.75;2.58;;;;;;;17.30;73.83;100668.69;5093777;28;20048;-71
2022/07/09 03:40:05;;;;;;;7.05;2.58;;;;;;;17.47;73.27;100670.84;5093997;28;20089;-71
2022/07/09 03:42:33;;;;;;;7.07;2.60;;;;;;;17.92;69.48;100668.88;5093439;28;20058;-71
2022/07/09 03:45:01;;;;;;;5.43;2.42;;;;;;;17.99;68.96;100669.22;5093581;28;20032;-71
2022/07/09 03:47:30;;;;;;;6.20;2.28;;;;;;;17.80;69.66;100666.34;5093423;28;20048;-71
2022/07/09 03:49:58;;;;;;;7.57;2.60;;;;;;;18.18;67.47;100668.50;5093723;28;20054;-71
2022/07/09 03:52:26;;;;;;;6.05;2.63;;;;;;;17.95;68.20;100663.25;5093327;28;20047;-71
2022/07/09 03:54:54;;;;;;;6.72;2.50;;;;;;;17.80;68.81;100669.91;5093482;28;20042;-71
2022/07/09 03:57:24;;;;;;;6.60;2.58;;;;;;;17.78;69.19;100668.34;5093199;28;20040;-71
2022/07/09 03:59:52;;;;;;;5.80;2.30;;;;;;;17.76;69.41;100667.56;5093583;28;20512;-71
2022/07/09 04:02:20;;;;;;;6.15;2.33;;;;;;;17.70;69.30;100668.97;5093222;28;20044;-72
2022/07/09 04:04:49;;;;;;;8.13;2.50;;;;;;;17.58;69.72;100662.72;5093465;28;20126;-71
2022/07/09 04:07:18;;;;;;;5.47;2.40;;;;;;;17.82;68.57;100667.06;5093395;28;20485;-71
2022/07/09 04:09:46;;;;;;;5.50;2.47;;;;;;;17.87;68.25;100672.97;5093081;28;20059;-72
2022/07/09 04:12:18;;;;;;;7.43;2.23;;;;;;;17.76;68.68;100667.56;5093173;28;20067;-71
2022/07/09 04:14:48;;;;;;;4.65;2.25;;;;;;;17.77;68.76;100674.72;5093378;28;20546;-71
2022/07/09 04:17:16;;;;;;;4.50;2.20;;;;;;;17.77;68.94;100672.03;5093317;28;20048;-69
2022/07/09 04:19:44;;;;;;;4.45;2.25;;;;;;;17.84;68.78;100671.34;5092994;28;20052;-69
2022/07/09 04:22:12;;;;;;;5.40;2.47;;;;;;;19.65;61.01;100667.22;5074970;28;20480;-70
2022/07/09 04:24:40;;;;;;;5.28;2.30;;;;;;;20.60;56.59;100669.19;5092815;28;20134;-70
2022/07/09 04:27:09;;;;;;;6.22;2.35;;;;;;;20.20;58.21;100667.50;5093337;28;20050;-71
2022/07/09 04:29:37;;;;;;;5.07;2.38;;;;;;;19.27;61.08;100670.66;5092968;28;20052;-71
2022/07/09 04:32:07;;;;;;;6.10;2.30;;;;;;;18.60;64.37;100667.50;5093141;28;20400;-71
2022/07/09 04:34:35;;;;;;;4.55;2.30;;;;;;;18.37;65.09;100667.78;5092921;28;20062;-71
2022/07/09 04:37:04;;;;;;;8.20;2.63;;;;;;;20.31;58.81;100664.66;5093030;28;20461;-71
2022/07/09 04:39:32;;;;;;;7.63;2.80;;;;;;;19.33;60.87;100668.28;5092665;28;20048;-71
2022/07/09 04:42:01;;;;;;;5.40;2.20;;;;;;;18.34;64.89;100665.38;5093280;28;20386;-71
2022/07/09 04:44:29;;;;;;;5.30;2.60;;;;;;;18.02;66.84;100677.03;5092752;28;20036;-71
2022/07/09 04:46:57;;;;;;;4.95;2.40;;;;;;;17.84;67.91;100671.34;5092898;28;20040;-71
2022/07/09 04:49:26;;;;;;;8.70;2.70;;;;;;;17.81;68.28;100679.72;5092508;28;20093;-71
2022/07/09 04:51:54;;;;;;;7.90;2.60;;;;;;;17.67;69.01;100672.75;5093151;28;20047;-71
2022/07/09 04:54:23;;;;;;;5.60;2.53;;;;;;;17.45;70.47;100672.78;5092534;28;20127;-73
2022/07/09 04:56:51;;;;;;;5.78;2.60;;;;;;;17.48;70.38;100669.00;5093017;28;20040;-71
2022/07/09 04:59:19;;;;;;;5.68;3.05;;;;;;;17.36;71.22;100687.03;5093106;28;20044;-70
2022/07/09 05:01:48;;;;;;;6.28;2.63;;;;;;;17.44;71.14;100671.09;5092651;28;20050;-70
2022/07/09 05:04:16;;;;;;;6.78;2.72;;;;;;;17.45;72.03;100670.94;5093009;28;20048;-71
2022/07/09 05:06:46;;;;;;;7.57;2.80;;;;;;;17.63;70.92;100668.56;5092665;28;20427;-71
2022/07/09 05:09:14;;;;;;;6.22;2.80;;;;;;;17.83;69.67;100674.19;5092731;28;20043;-71
2022/07/09 05:11:42;;;;;;;7.93;2.90;;;;;;;17.91;69.49;100671.69;5092255;28;20052;-71
2022/07/09 05:14:11;;;;;;;8.82;2.90;;;;;;;18.09;68.34;100678.25;5092625;28;20445;-71
2022/07/09 05:16:44;;;;;;;7.35;2.78;;;;;;;17.89;69.38;100673.69;5092579;28;20078;-71
2022/07/09 05:19:12;;;;;;;7.28;2.72;;;;;;;17.86;68.46;100672.09;5092735;28;20098;-71
2022/07/09 05:21:41;;;;;;;8.65;2.75;;;;;;;17.95;68.44;100673.16;5092526;28;20072;-71
2022/07/09 05:24:10;;;;;;;5.30;2.58;;;;;;;18.77;63.99;100674.16;5092616;28;20048;-71
2022/07/09 05:26:38;;;;;;;6.72;2.40;;;;;;;18.06;67.25;100670.41;5092577;28;20473;-70
2022/07/09 05:29:06;;;;;;;6.60;2.65;;;;;;;17.90;68.25;100667.28;5092311;28;20040;-71
2022/07/09 05:31:35;;;;;;;6.63;2.90;;;;;;;17.92;68.72;100673.41;5092626;28;20043;-71
2022/07/09 05:34:03;;;;;;;5.57;2.75;;;;;;;17.87;68.90;100673.81;5092390;28;20448;-71
2022/07/09 05:36:31;;;;;;;6.72;2.95;;;;;;;17.83;69.55;100666.09;5094119;28;20098;-70
2022/07/09 05:39:00;;;;;;;6.88;2.97;;;;;;;19.91;61.99;100668.38;5096028;28;20401;-71
2022/07/09 05:41:29;;;;;;;6.72;2.53;;;;;;;21.43;55.07;100668.28;5095850;28;20044;-72
2022/07/09 05:43:58;;;;;;;6.80;2.83;;;;;;;22.92;49.94;100664.84;5096052;28;20047;-71
2022/07/09 05:46:26;;;;;;;8.27;2.60;;;;;;;23.12;49.50;100660.84;5095767;28;20040;-73
2022/07/09 05:48:54;;;;;;;5.60;2.55;;;;;;;23.63;47.60;100656.28;5095828;28;20054;-69
2022/07/09 05:51:23;;;;;;;3.85;2.20;;;;;;;24.04;46.41;100648.19;5095867;28;20105;-69
2022/07/09 05:53:51;;;;;;;5.72;2.38;;;;;;;24.08;45.97;100654.97;5095708;28;20040;-68
2022/07/09 05:56:19;;;;;;;4.38;2.05;;;;;;;23.70;46.12;100662.75;5095472;28;20033;-69
2022/07/09 05:58:49;;;;;;;6.47;2.40;;;;;;;25.13;43.49;100654.00;5095130;28;20063;-70
2022/07/09 06:01:17;;;;;;;5.85;2.35;;;;;;;24.87;44.58;100656.94;5095196;28;20047;-73
2022/07/09 06:03:53;;;;;;;6.22;2.30;;;;;;;25.90;41.53;100652.22;5095467;28;20040;-71
2022/07/09 06:06:21;;;;;;;4.90;2.20;;;;;;;25.41;42.33;100659.84;5095339;28;20048;-72
2022/07/09 06:08:50;;;;;;;5.90;2.22;;;;;;;25.79;40.77;100652.63;5073701;28;20055;-73
2022/07/09 06:11:18;;;;;;;5.55;2.20;;;;;;;25.28;41.82;100654.06;5094847;28;20116;-73
2022/07/09 06:13:46;;;;;;;5.55;2.25;;;;;;;24.86;43.43;100657.13;5074563;28;20036;-73
2022/07/09 06:16:15;;;;;;;4.75;2.42;;;;;;;26.23;40.16;100652.78;5074607;28;20041;-69
2022/07/09 06:18:43;;;;;;;7.13;2.20;;;;;;;26.48;40.05;100656.19;5074294;28;20111;-69
2022/07/09 06:21:12;;;;;;;4.50;2.13;;;;;;;25.64;41.72;100644.31;5074365;28;20046;-70
2022/07/09 06:23:40;;;;;;;3.80;1.92;;;;;;;26.05;40.45;100652.25;5074508;28;20499;-73
2022/07/09 06:26:08;;;;;;;4.05;1.88;;;;;;;26.65;39.06;100654.16;5074922;28;20052;-71
2022/07/09 06:28:37;;;;;;;5.28;2.28;;;;;;;26.55;39.62;100653.56;5074476;28;20052;-72
2022/07/09 06:31:06;;;;;;;5.57;2.25;;;;;;;26.63;38.58;100658.94;5074268;28;20409;-72
2022/07/09 06:33:35;;;;;;;4.40;1.90;;;;;;;26.07;40.05;100650.22;5076655;28;20524;-71
2022/07/09 06:36:04;;;;;;;6.05;2.15;;;;;;;26.38;39.08;100649.28;5074632;28;20041;-70
2022/07/09 06:38:32;;;;;;;5.97;2.42;;;;;;;26.63;39.00;100658.94;5057093;28;20045;-72
2022/07/09 06:41:00;;;;;;;4.85;2.20;;;;;;;26.41;39.67;100659.84;5065467;28;20094;-70
2022/07/09 06:43:29;;;;;;;5.40;2.20;;;;;;;26.18;40.17;100657.97;5071623;28;20068;-77
2022/07/09 06:45:57;;;;;;;4.07;2.10;;;;;;;25.52;41.03;100662.16;5073722;28;20044;-69
2022/07/09 06:48:25;;;;;;;5.53;2.47;;;;;;;25.40;41.44;100652.69;5076062;28;20051;-68
2022/07/09 06:50:54;;;;;;;6.32;2.40;;;;;;;25.21;41.64;100661.31;5073834;28;20047;-71
2022/07/09 06:53:22;;;;;;;5.63;2.40;;;;;;;25.37;41.34;100653.84;5074426;28;20052;-70
2022/07/09 06:55:51;;;;;;;4.50;2.33;;;;;;;25.34;41.44;100658.84;5074045;28;20040;-70
2022/07/09 06:58:19;;;;;;;4.32;2.35;;;;;;;26.25;40.23;100650.75;5074139;28;20047;-69
2022/07/09 07:00:47;;;;;;;4.07;2.03;;;;;;;26.17;39.94;100650.81;5073917;28;20052;-71
2022/07/09 07:03:18;;;;;;;5.57;2.53;;;;;;;26.02;40.41;100652.63;5074282;28;20051;-70
2022/07/09 07:05:47;;;;;;;5.20;2.25;;;;;;;24.97;43.09;100643.94;5073961;28;20044;-71
2022/07/09 07:08:18;;;;;;;4.45;2.38;;;;;;;24.53;42.94;100658.06;5074052;28;20049;-72
2022/07/09 07:10:46;;;;;;;5.72;2.33;;;;;;;23.70;45.37;100651.88;5073792;28;20044;-72
2022/07/09 07:13:14;;;;;;;5.35;2.30;;;;;;;23.51;46.11;100654.84;5091703;28;20056;-70
2022/07/09 07:15:44;;;;;;;5.53;2.20;;;;;;;23.45;46.00;100660.94;5096054;28;20101;-70
2022/07/09 07:18:12;;;;;;;5.82;2.55;;;;;;;23.53;45.96;100661.84;5096577;28;20113;-72
2022/07/09 07:20:40;;;;;;;6.63;2.50;;;;;;;23.27;47.43;100651.06;5077302;28;20048;-71
2022/07/09 07:23:08;;;;;;;4.97;2.40;;;;;;;23.42;46.58;100646.66;5094187;28;20046;-72
2022/07/09 07:25:38;;;;;;;7.32;2.63;;;;;;;23.38;46.75;100658.91;5093854;28;20083;-72
2022/07/09 07:28:07;;;;;;;4.70;2.40;;;;;;;23.32;46.97;100666.88;5094147;28;20040;-70
2022/07/09 07:30:36;;;;;;;6.80;2.70;;;;;;;22.82;48.58;100656.75;5093275;28;20086;-70
2022/07/09 07:33:04;;;;;;;5.60;2.70;;;;;;;22.76;48.13;100658.25;5093976;28;20561;-72
2022/07/09 07:35:32;;;;;;;4.65;2.60;;;;;;;23.01;47.74;100647.53;5093515;28;20040;-72
2022/07/09 07:38:01;;;;;;;3.97;2.33;;;;;;;22.78;47.97;100645.38;5093809;28;20045;-71
2022/07/09 07:40:29;;;;;;;7.95;2.53;;;;;;;22.60;48.80;100650.00;5093502;28;20504;-71
2022/07/09 07:42:58;;;;;;;8.82;2.42;;;;;;;22.04;50.59;100639.53;5094072;28;20067;-69
2022/07/09 07:45:27;;;;;;;6.35;2.38;;;;;;;22.09;50.52;100639.94;5075731;28;20055;-68
2022/07/09 07:47:56;;;;;;;5.95;2.70;;;;;;;22.46;49.99;100642.44;5092829;28;20089;-70
2022/07/09 07:50:25;;;;;;;4.30;2.40;;;;;;;22.22;50.50;100633.09;5081725;28;20048;-70
2022/07/09 07:52:53;;;;;;;4.43;2.50;;;;;;;22.23;49.93;100639.38;5072228;28;20237;-69
2022/07/09 07:55:27;;;;;;;5.65;2.58;;;;;;;22.55;49.31;100636.03;5073117;28;20044;-68
2022/07/09 07:57:55;;;;;;;7.10;2.60;;;;;;;22.57;48.63;100643.00;5072969;28;20048;-69
2022/07/09 08:00:25;;;;;;;4.22;2.15;;;;;;;22.51;48.71;100638.22;5073067;28;20037;-69
2022/07/09 08:02:54;;;;;;;4.53;2.30;;;;;;;22.78;48.22;100648.09;5072808;28;20151;-69
2022/07/09 08:05:23;;;;;;;4.07;2.30;;;;;;;22.60;48.26;100641.00;5072795;28;20060;-69
2022/07/09 08:07:51;;;;;;;5.07;2.55;;;;;;;22.54;48.33;100631.59;5072961;28;20040;-69
2022/07/09 08:10:20;;;;;;;5.00;2.25;;;;;;;22.72;47.78;100635.13;5073375;28;20041;-69
2022/07/09 08:12:48;;;;;;;10.40;3.13;;;;;;;22.85;47.72;100635.56;5072710;28;20057;-69
2022/07/09 08:15:16;;;;;;;6.43;2.22;;;;;;;23.03;48.05;100632.75;5073181;28;20040;-69
2022/07/09 08:17:47;;;;;;;6.88;2.20;;;;;;;22.66;46.80;100629.47;5072863;28;20048;-69
2022/07/09 08:20:15;;;;;;;7.78;2.58;;;;;;;22.72;46.27;100629.69;5073376;28;20371;-69
2022/07/09 08:22:43;;;;;;;3.30;2.10;;;;;;;22.79;45.70;100619.88;5072940;28;20037;-69
2022/07/09 08:25:12;;;;;;;4.35;2.13;;;;;;;22.65;45.96;100634.06;5072872;28;20425;-68
2022/07/09 08:27:42;;;;;;;3.90;2.08;;;;;;;22.96;45.31;100630.84;5072961;28;20098;-69
2022/07/09 08:30:10;;;;;;;4.05;2.30;;;;;;;22.57;46.32;100629.41;5072817;28;20040;-69
2022/07/09 08:32:39;;;;;;;5.97;2.10;;;;;;;22.80;44.74;100632.44;5072757;28;20045;-69
2022/07/09 08:35:09;;;;;;;4.55;2.00;;;;;;;22.76;45.33;100620.16;5072841;28;20040;-69
2022/07/09 08:37:38;;;;;;;4.80;2.10;;;;;;;22.92;45.84;100618.59;5072768;28;20106;-69
2022/07/09 08:40:08;;;;;;;3.88;2.22;;;;;;;23.37;45.33;100613.66;5072901;28;20044;-69
2022/07/09 08:42:37;;;;;;;4.75;2.22;;;;;;;23.02;44.71;100619.31;5072447;28;20041;-75
2022/07/09 08:45:12;;;;;;;2.85;1.83;;;;;;;22.91;45.46;100606.00;5054569;28;20049;-69
2022/07/09 08:47:41;;;;;;;4.50;2.28;;;;;;;23.13;44.80;100598.09;5072541;28;20121;-68
2022/07/09 08:50:11;;;;;;;3.92;2.30;;;;;;;23.16;43.27;100610.50;5072913;28;20048;-68
2022/07/09 08:52:41;;;;;;;3.63;2.05;;;;;;;23.22;43.25;100607.13;5072892;28;20131;-68
2022/07/09 08:55:10;;;;;;;5.47;2.50;;;;;;;23.30;44.25;100607.16;5072717;28;20436;-70
2022/07/09 08:57:38;;;;;;;4.88;2.55;;;;;;;23.23;43.65;100600.69;5072497;28;20045;-68
2022/07/09 09:00:08;;;;;;;5.13;2.35;;;;;;;23.45;43.69;100603.78;5072564;28;20291;-68
2022/07/09 09:02:37;;;;;;;6.63;2.45;;;;;;;23.14;43.46;100607.09;5072627;28;20047;-68
2022/07/09 09:05:13;;;;;;;5.63;2.03;;;;;;;23.21;44.28;100602.72;5072586;28;20045;-68
2022/07/09 09:07:41;;;;;;;5.82;2.20;;;;;;;23.16;44.31;100598.78;5072297;28;20090;-68
2022/07/09 09:10:21;;;;;;;4.68;2.10;;;;;;;23.22;44.12;100595.41;5072574;28;20119;-68
2022/07/09 09:12:50;;;;;;;4.82;2.30;;;;;;;23.37;43.64;100581.00;5076208;28;20095;-68
2022/07/09 09:15:19;;;;;;;5.22;2.70;;;;;;;23.52;43.86;100591.22;5076308;28;20104;-68
2022/07/09 09:17:47;;;;;;;4.13;2.20;;;;;;;23.74;44.63;100576.13;5075853;28;20044;-68
2022/07/09 09:20:18;;;;;;;5.18;2.30;;;;;;;23.76;44.55;100574.09;5076380;28;20043;-68
2022/07/09 09:22:48;;;;;;;5.05;2.17;;;;;;;23.67;43.81;100575.97;5076032;28;20053;-68
2022/07/09 09:25:18;;;;;;;4.03;2.17;;;;;;;23.39;43.93;100578.09;5076081;28;20044;-68
2022/07/09 09:27:53;;;;;;;3.50;2.15;;;;;;;23.78;43.39;100580.22;5075960;28;20127;-68
2022/07/09 09:30:22;;;;;;;4.90;1.90;;;;;;;23.81;43.34;100571.69;5075952;28;20045;-68
2022/07/09 09:32:58;;;;;;;4.53;1.80;;;;;;;23.78;42.14;100569.34;5075592;28;20477;-68
2022/07/09 09:35:30;;;;;;;6.30;2.20;;;;;;;23.28;42.93;100582.00;5076209;28;20123;-68
2022/07/09 09:37:59;;;;;;;7.65;2.22;;;;;;;23.35;43.47;100571.28;5075797;28;20086;-68
2022/07/09 09:40:27;;;;;;;4.55;2.17;;;;;;;23.63;43.17;100569.13;5075851;28;20047;-68
2022/07/09 09:42:59;;;;;;;3.67;2.03;;;;;;;23.68;42.66;100567.63;5075424;28;20041;-68
2022/07/09 09:45:28;;;;;;;7.07;2.10;;;;;;;23.60;42.68;100569.47;5075602;28;20497;-68
2022/07/09 09:47:59;;;;;;;4.32;2.05;;;;;;;23.61;42.46;100563.00;5075463;28;20523;-68
2022/07/09 09:50:29;;;;;;;4.45;2.15;;;;;;;24.11;41.68;100557.38;5075696;28;20044;-68
2022/07/09 09:53:03;;;;;;;5.25;2.10;;;;;;;24.34;41.65;100545.81;5075232;28;20085;-68
2022/07/09 09:55:31;;;;;;;4.47;2.20;;;;;;;24.12;40.95;100561.81;5075842;28;20540;-68
2022/07/09 09:58:00;;;;;;;3.85;2.00;;;;;;;24.17;41.16;100553.97;5075061;28;20055;-68
2022/07/09 10:00:29;;;;;;;4.07;2.10;;;;;;;24.15;40.58;100558.75;5075575;28;20041;-68
2022/07/09 10:02:58;;;;;;;3.22;1.80;;;;;;;24.17;41.11;100547.66;5075247;28;20064;-68
2022/07/09 10:05:26;;;;;;;5.28;2.05;;;;;;;24.23;40.17;100555.16;5075543;28;20044;-68
2022/07/09 10:07:55;;;;;;;5.78;2.13;;;;;;;24.20;40.48;100550.88;5074994;28;20063;-68
2022/07/09 10:10:24;;;;;;;4.32;2.00;;;;;;;24.06;40.60;100553.47;5075069;28;20427;-68
2022/07/09 10:12:52;;;;;;;4.35;2.20;;;;;;;24.12;40.57;100559.06;5056719;28;20060;-68
2022/07/09 10:15:22;;;;;;;4.05;2.00;;;;;;;23.99;40.26;100547.88;5075438;28;20041;-68
2022/07/09 10:17:50;;;;;;;5.38;1.92;;;;;;;24.14;40.15;100539.84;5057027;28;20053;-68
2022/07/09 10:20:30;;;;;;;3.03;1.70;;;;;;;23.94;39.47;100545.66;5074984;28;20504;-68
2022/07/09 10:23:00;;;;;;;4.88;2.10;;;;;;;24.01;39.73;100544.97;5074244;28;20094;-68
2022/07/09 10:25:30;;;;;;;6.03;1.80;;;;;;;24.13;39.63;100535.44;5075022;28;20044;-68
2022/07/09 10:27:58;;;;;;;5.00;1.60;;;;;;;24.35;39.15;100528.41;5074872;28;20392;-68
2022/07/09 10:30:28;;;;;;;5.53;1.90;;;;;;;24.95;38.74;100514.19;5074847;28;20063;-68
2022/07/09 10:33:05;;;;;;;5.20;1.90;;;;;;;25.09;37.96;100527.06;5074484;28;20429;-68
2022/07/09 10:35:40;;;;;;;4.85;1.80;;;;;;;24.71;37.80;100531.53;5074900;28;20526;-68
2022/07/09 10:38:11;;;;;;;4.10;1.63;;;;;;;24.86;37.90;100513.38;5074933;28;20044;-68
2022/07/09 10:40:41;;;;;;;5.30;1.80;;;;;;;25.02;37.30;100513.31;5074459;28;20045;-68
2022/07/09 10:43:09;;;;;;;3.17;1.60;;;;;;;25.19;36.95;100514.09;5074752;28;20067;-68
2022/07/09 10:45:38;;;;;;;3.50;1.80;;;;;;;24.91;36.96;100513.69;5074738;28;20037;-68
2022/07/09 10:48:09;;;;;;;4.45;1.70;;;;;;;24.51;37.10;100510.13;5074094;28;20493;-68
2022/07/09 10:50:39;;;;;;;3.45;1.90;;;;;;;24.59;37.17;100517.41;5074700;28;20064;-68
2022/07/09 10:53:07;;;;;;;3.42;1.60;;;;;;;24.83;37.31;100503.69;5074247;28;20044;-68
2022/07/09 10:55:37;;;;;;;6.72;1.80;;;;;;;25.23;37.61;100499.03;5074439;28;20041;-68
2022/07/09 10:58:08;;;;;;;5.03;1.95;;;;;;;25.16;36.63;100502.66;5074002;28;20090;-69
2022/07/09 11:00:36;;;;;;;6.72;2.03;;;;;;;24.96;36.88;100505.81;5074551;28;20044;-68
2022/07/09 11:03:05;;;;;;;2.90;1.58;;;;;;;24.96;35.79;100500.34;5074076;28;20155;-68
2022/07/09 11:05:35;;;;;;;6.03;1.75;;;;;;;24.82;36.15;100487.50;5074379;28;20044;-68
2022/07/09 11:08:05;;;;;;;6.55;1.63;;;;;;;24.99;35.31;100491.81;5073710;28;20090;-68
2022/07/09 11:10:36;;;;;;;4.57;2.20;;;;;;;25.04;35.75;100488.56;5073985;28;20048;-68
2022/07/09 11:13:08;;;;;;;5.07;1.90;;;;;;;25.18;36.10;100503.31;5073801;28;20057;-67
2022/07/09 11:15:38;;;;;;;4.18;1.85;;;;;;;24.58;35.22;100503.97;5073968;28;20072;-68
2022/07/09 11:18:07;;;;;;;5.20;1.90;;;;;;;24.76;35.35;100489.03;5073534;28;20075;-68
2022/07/09 11:20:39;;;;;;;3.65;1.80;;;;;;;24.78;35.48;100488.84;5055957;28;20045;-68
2022/07/09 11:23:09;;;;;;;5.45;2.17;;;;;;;24.80;35.81;100498.59;5073557;28;20055;-69
2022/07/09 11:25:38;;;;;;;4.85;1.77;;;;;;;25.12;35.27;100474.88;5073637;28;20048;-69
2022/07/09 11:28:08;;;;;;;5.63;2.20;;;;;;;25.46;34.94;100473.59;5073551;28;20482;-69
2022/07/09 11:30:41;;;;;;;4.07;1.70;;;;;;;25.17;34.27;100468.88;5073838;28;20045;-68
2022/07/09 11:33:12;;;;;;;4.28;1.65;;;;;;;25.27;34.87;100467.59;5072359;28;20049;-69